createdAt,value
2023-01-30T00:01:43.743Z,6.93
2023-01-30T00:04:17.230Z,6.93
2023-01-30T00:06:44.686Z,6.94
2023-01-30T00:09:15.108Z,6.95
2023-01-30T00:11:42.622Z,6.97
2023-01-30T00:14:09.862Z,6.96
2023-01-30T00:16:36.857Z,6.95
2023-01-30T00:19:03.936Z,6.93
2023-01-30T00:21:30.969Z,6.88
2023-01-30T00:23:58.004Z,6.85
2023-01-30T00:26:24.923Z,6.79
2023-01-30T00:28:52.019Z,6.76
2023-01-30T00:31:18.978Z,6.72
2023-01-30T00:33:46.741Z,6.70
2023-01-30T00:36:15.182Z,6.69
2023-01-30T00:38:42.154Z,6.69
2023-01-30T00:41:10.917Z,6.69
2023-01-30T00:43:56.930Z,6.68
2023-01-30T00:46:51.649Z,6.66
2023-01-30T00:49:20.302Z,6.68
2023-01-30T00:51:47.592Z,6.67
2023-01-30T00:54:14.490Z,6.64
2023-01-30T00:56:41.693Z,6.63
2023-01-30T00:59:08.578Z,6.62
2023-01-30T01:01:35.479Z,6.59
2023-01-30T01:04:02.484Z,6.62
2023-01-30T01:06:29.431Z,6.63
2023-01-30T01:08:56.728Z,6.63
2023-01-30T01:11:26.941Z,6.62
2023-01-30T01:13:56.328Z,6.63
2023-01-30T01:16:24.179Z,6.64
2023-01-30T01:18:51.725Z,6.64
2023-01-30T01:21:20.409Z,6.64
2023-01-30T01:23:55.887Z,6.64
2023-01-30T01:26:23.157Z,6.65
2023-01-30T01:28:51.141Z,6.70
2023-01-30T01:31:18.437Z,6.72
2023-01-30T01:33:45.444Z,6.75
2023-01-30T01:36:20.068Z,6.76
2023-01-30T01:38:56.630Z,6.78
2023-01-30T01:41:23.794Z,6.79
2023-01-30T01:44:03.963Z,6.83
2023-01-30T01:46:36.479Z,6.87
2023-01-30T01:49:08.228Z,6.90
2023-01-30T01:51:40.085Z,6.91
2023-01-30T01:54:12.354Z,6.92
2023-01-30T01:56:45.946Z,6.91
2023-01-30T01:59:37.868Z,6.93
2023-01-30T02:02:11.208Z,6.95
2023-01-30T02:05:00.733Z,6.97
2023-01-30T02:07:31.541Z,6.93
2023-01-30T02:09:58.572Z,6.98
2023-01-30T02:12:25.877Z,7.00
2023-01-30T02:14:56.269Z,6.96
2023-01-30T02:17:24.422Z,6.96
2023-01-30T02:20:07.799Z,6.96
2023-01-30T02:22:52.352Z,6.96
2023-01-30T02:25:43.957Z,6.96
2023-01-30T02:28:25.203Z,6.98
2023-01-30T02:31:22.052Z,7.00
2023-01-30T02:34:32.090Z,6.96
2023-01-30T02:37:08.126Z,6.91
2023-01-30T02:39:45.254Z,6.79
2023-01-30T02:42:25.099Z,6.76
2023-01-30T02:45:05.578Z,6.75
2023-01-30T02:47:45.266Z,6.68
2023-01-30T02:50:21.382Z,6.70
2023-01-30T02:52:48.997Z,6.72
2023-01-30T02:55:26.579Z,6.73
2023-01-30T02:57:54.157Z,6.78
2023-01-30T03:00:32.804Z,6.83
2023-01-30T03:03:18.793Z,6.85
2023-01-30T03:05:51.511Z,6.82
2023-01-30T03:08:47.763Z,6.74
2023-01-30T03:11:15.204Z,6.63
2023-01-30T03:13:45.805Z,6.57
2023-01-30T03:16:40.111Z,6.51
2023-01-30T03:19:12.406Z,6.45
2023-01-30T03:21:44.761Z,6.44
2023-01-30T03:24:15.802Z,6.49
2023-01-30T03:26:49.000Z,6.50
2023-01-30T03:29:16.837Z,6.51
2023-01-30T03:31:44.344Z,6.53
2023-01-30T03:34:11.542Z,6.48
2023-01-30T03:36:39.790Z,6.44
2023-01-30T03:39:07.157Z,6.41
2023-01-30T03:41:34.483Z,6.43
2023-01-30T03:44:02.597Z,6.47
2023-01-30T03:46:29.718Z,6.47
2023-01-30T03:48:56.772Z,6.42
2023-01-30T03:51:23.747Z,6.34
2023-01-30T03:53:51.536Z,6.36
2023-01-30T03:56:18.760Z,6.35
2023-01-30T03:58:46.035Z,6.36
2023-01-30T04:01:18.836Z,6.32
2023-01-30T04:03:47.000Z,6.27
2023-01-30T04:06:14.844Z,6.26
2023-01-30T04:08:42.158Z,6.21
2023-01-30T04:11:14.596Z,6.10
2023-01-30T04:13:41.526Z,6.00
2023-01-30T04:16:23.841Z,6.02
2023-01-30T04:19:09.540Z,5.98
2023-01-30T04:21:37.476Z,5.91
2023-01-30T04:24:04.583Z,5.97
2023-01-30T04:26:31.384Z,5.92
2023-01-30T04:28:58.562Z,5.79
2023-01-30T04:31:27.410Z,5.78
2023-01-30T04:34:02.183Z,5.66
2023-01-30T04:36:31.791Z,5.57
2023-01-30T04:38:58.654Z,5.52
2023-01-30T04:41:27.091Z,5.49
2023-01-30T04:43:59.166Z,5.55
2023-01-30T04:46:34.604Z,5.59
2023-01-30T04:49:01.549Z,5.65
2023-01-30T04:51:28.474Z,5.72
2023-01-30T04:53:57.265Z,5.75
2023-01-30T04:56:24.165Z,5.64
2023-01-30T04:58:52.631Z,5.57
2023-01-30T05:01:26.615Z,5.53
2023-01-30T05:03:55.044Z,5.49
2023-01-30T05:06:22.870Z,5.55
2023-01-30T05:08:54.943Z,5.59
2023-01-30T05:11:23.878Z,5.63
2023-01-30T05:13:51.705Z,5.62
2023-01-30T05:16:20.751Z,5.59
2023-01-30T05:18:47.844Z,5.48
2023-01-30T05:21:17.963Z,5.47
2023-01-30T05:23:45.185Z,5.43
2023-01-30T05:26:13.862Z,5.43
2023-01-30T05:28:41.680Z,5.31
2023-01-30T05:31:11.458Z,5.28
2023-01-30T05:33:39.451Z,5.34
2023-01-30T05:36:07.099Z,5.42
2023-01-30T05:38:34.104Z,5.60
2023-01-30T05:41:06.096Z,5.66
2023-01-30T05:43:34.630Z,5.69
2023-01-30T05:46:03.904Z,5.76
2023-01-30T05:48:31.191Z,5.78
2023-01-30T05:50:59.107Z,5.86
2023-01-30T05:53:32.161Z,5.91
2023-01-30T05:56:01.584Z,5.93
2023-01-30T05:58:29.319Z,5.89
2023-01-30T06:01:01.214Z,5.86
2023-01-30T06:03:28.255Z,5.86
2023-01-30T06:05:55.231Z,5.91
2023-01-30T06:08:22.969Z,6.02
2023-01-30T06:10:50.103Z,6.07
2023-01-30T06:13:17.034Z,6.06
2023-01-30T06:15:44.073Z,6.07
2023-01-30T06:18:11.235Z,6.09
2023-01-30T06:20:38.691Z,6.07
2023-01-30T06:23:05.686Z,6.06
2023-01-30T06:25:32.573Z,6.04
2023-01-30T06:27:59.405Z,6.00
2023-01-30T06:30:26.380Z,5.95
2023-01-30T06:32:53.565Z,6.06
2023-01-30T06:35:21.442Z,6.08
2023-01-30T06:37:48.647Z,6.09
2023-01-30T06:40:15.817Z,6.07
2023-01-30T06:42:47.005Z,6.03
2023-01-30T06:45:16.616Z,5.97
2023-01-30T06:47:52.433Z,5.94
2023-01-30T06:50:22.028Z,5.96
2023-01-30T06:52:51.370Z,5.96
2023-01-30T06:55:21.627Z,5.95
2023-01-30T06:57:50.161Z,5.98
2023-01-30T07:00:21.577Z,5.99
2023-01-30T07:02:48.529Z,6.03
2023-01-30T07:05:15.421Z,6.05
2023-01-30T07:07:42.279Z,6.04
2023-01-30T07:10:12.280Z,6.08
2023-01-30T07:12:39.430Z,6.14
2023-01-30T07:15:07.268Z,6.16
2023-01-30T07:17:34.260Z,6.13
2023-01-30T07:20:01.508Z,6.08
2023-01-30T07:22:28.532Z,6.04
2023-01-30T07:24:55.583Z,6.08
2023-01-30T07:27:22.554Z,6.13
2023-01-30T07:29:51.882Z,6.19
2023-01-30T07:32:21.166Z,6.21
2023-01-30T07:34:48.181Z,6.22
2023-01-30T07:37:15.392Z,6.23
2023-01-30T07:39:42.382Z,6.26
2023-01-30T07:42:09.625Z,6.25
2023-01-30T07:44:36.575Z,6.29
2023-01-30T07:47:03.749Z,6.31
2023-01-30T07:49:30.803Z,6.37
2023-01-30T07:51:57.890Z,6.38
2023-01-30T07:54:25.285Z,6.33
2023-01-30T07:56:52.401Z,6.25
2023-01-30T07:59:19.544Z,6.25
2023-01-30T08:01:47.070Z,6.21
2023-01-30T08:04:14.116Z,6.20
2023-01-30T08:06:41.061Z,6.23
2023-01-30T08:09:08.085Z,6.25
2023-01-30T08:11:35.161Z,6.23
2023-01-30T08:14:02.384Z,6.22
2023-01-30T08:16:32.329Z,6.24
2023-01-30T08:18:59.976Z,6.31
2023-01-30T08:21:27.019Z,6.40
2023-01-30T08:23:53.990Z,6.45
2023-01-30T08:26:22.328Z,6.48
2023-01-30T08:28:50.107Z,6.45
2023-01-30T08:31:17.889Z,6.43
2023-01-30T08:33:45.346Z,6.45
2023-01-30T08:36:12.290Z,6.49
2023-01-30T08:38:39.215Z,6.60
2023-01-30T08:41:08.407Z,6.63
2023-01-30T08:43:35.488Z,6.68
2023-01-30T08:46:02.674Z,6.67
2023-01-30T08:48:36.950Z,6.66
2023-01-30T08:51:15.217Z,6.65
2023-01-30T08:53:42.489Z,6.58
2023-01-30T08:56:09.489Z,6.63
2023-01-30T08:58:36.817Z,6.65
2023-01-30T09:01:07.695Z,6.71
2023-01-30T09:03:34.963Z,6.75
2023-01-30T09:06:02.174Z,6.77
2023-01-30T09:08:29.269Z,6.86
2023-01-30T09:11:00.577Z,6.90
2023-01-30T09:13:28.481Z,6.95
2023-01-30T09:15:55.517Z,6.92
2023-01-30T09:18:24.378Z,6.89
2023-01-30T09:20:52.880Z,6.92
2023-01-30T09:23:22.055Z,6.86
2023-01-30T09:25:48.957Z,6.71
2023-01-30T09:28:16.695Z,6.67
2023-01-30T09:30:44.055Z,6.70
2023-01-30T09:33:10.974Z,6.73
2023-01-30T09:35:37.930Z,6.76
2023-01-30T09:38:05.850Z,6.80
2023-01-30T09:40:36.812Z,6.89
2023-01-30T09:43:30.046Z,6.94
2023-01-30T09:46:38.402Z,6.95
2023-01-30T09:49:19.023Z,6.94
2023-01-30T09:52:16.365Z,6.94
2023-01-30T09:54:45.629Z,6.92
2023-01-30T09:57:21.634Z,6.94
2023-01-30T09:59:57.898Z,7.15
2023-01-30T10:02:50.125Z,7.33
2023-01-30T10:05:17.712Z,7.44
2023-01-30T10:07:57.418Z,7.72
2023-01-30T10:10:43.833Z,7.87
2023-01-30T10:13:52.172Z,7.85
2023-01-30T10:16:27.281Z,7.68
2023-01-30T10:18:59.797Z,7.50
2023-01-30T10:21:41.927Z,5.95
2023-01-30T10:24:26.855Z,5.17
2023-01-30T10:26:54.959Z,4.86
2023-01-30T10:29:37.033Z,4.76
2023-01-30T10:32:09.839Z,4.81
2023-01-30T10:34:43.403Z,4.86
2023-01-30T10:37:15.692Z,4.92
2023-01-30T10:40:10.934Z,5.07
2023-01-30T10:42:52.943Z,5.32
2023-01-30T10:45:25.544Z,5.50
2023-01-30T10:47:52.639Z,5.68
2023-01-30T10:50:27.423Z,5.86
2023-01-30T10:53:06.729Z,6.02
2023-01-30T10:55:59.839Z,6.10
2023-01-30T10:58:42.819Z,6.24
2023-01-30T11:01:37.844Z,6.30
2023-01-30T11:04:29.852Z,6.45
2023-01-30T11:06:59.932Z,6.72
2023-01-30T11:10:00.313Z,7.28
2023-01-30T11:12:27.662Z,7.28
2023-01-30T11:14:59.987Z,7.05
2023-01-30T11:17:38.833Z,5.98
2023-01-30T11:20:24.961Z,5.40
2023-01-30T11:23:21.488Z,5.44
2023-01-30T11:26:05.712Z,5.56
2023-01-30T11:28:42.937Z,5.51
2023-01-30T11:31:38.914Z,5.50
2023-01-30T11:34:17.344Z,5.61
2023-01-30T11:36:47.262Z,5.75
2023-01-30T11:39:14.508Z,5.88
2023-01-30T11:41:57.364Z,6.00
2023-01-30T11:45:00.746Z,6.20
2023-01-30T11:47:33.780Z,6.34
2023-01-30T11:50:20.074Z,6.47
2023-01-30T11:52:51.136Z,6.66
2023-01-30T11:55:21.503Z,6.77
2023-01-30T11:57:54.339Z,6.81
2023-01-30T12:00:37.142Z,6.88
2023-01-30T12:03:10.161Z,6.85
2023-01-30T12:05:42.883Z,6.82
2023-01-30T12:08:39.460Z,6.88
2023-01-30T12:11:37.226Z,6.89
2023-01-30T12:14:18.190Z,6.98
2023-01-30T12:17:03.171Z,7.09
2023-01-30T12:19:42.415Z,7.17
2023-01-30T12:22:21.409Z,7.11
2023-01-30T12:24:59.445Z,6.99
2023-01-30T12:28:11.950Z,6.97
2023-01-30T12:30:51.913Z,7.00
2023-01-30T12:33:20.298Z,7.02
2023-01-30T12:35:50.227Z,7.01
2023-01-30T12:38:26.575Z,7.01
2023-01-30T12:41:15.521Z,7.12
2023-01-30T12:44:08.209Z,7.25
2023-01-30T12:47:00.469Z,7.29
2023-01-30T12:50:06.861Z,7.39
2023-01-30T12:52:51.848Z,7.28
2023-01-30T12:55:26.586Z,7.47
2023-01-30T12:58:13.876Z,7.51
2023-01-30T13:00:56.722Z,7.39
2023-01-30T13:03:49.917Z,7.37
2023-01-30T13:06:42.058Z,7.41
2023-01-30T13:09:14.641Z,7.56
2023-01-30T13:11:56.660Z,7.58
2023-01-30T13:14:46.624Z,7.58
2023-01-30T13:17:51.276Z,7.62
2023-01-30T13:20:36.715Z,7.73
2023-01-30T13:23:22.614Z,7.78
2023-01-30T13:26:04.843Z,7.76
2023-01-30T13:28:38.206Z,7.72
2023-01-30T13:31:09.734Z,7.80
2023-01-30T13:33:43.017Z,7.82
2023-01-30T13:36:33.997Z,7.87
2023-01-30T13:39:25.940Z,7.82
2023-01-30T13:41:58.683Z,7.82
2023-01-30T13:44:31.015Z,7.73
2023-01-30T13:47:05.830Z,7.60
2023-01-30T13:50:00.199Z,7.56
2023-01-30T13:52:38.199Z,7.52
2023-01-30T13:55:30.274Z,7.50
2023-01-30T13:58:26.560Z,7.47
2023-01-30T14:00:55.824Z,7.43
2023-01-30T14:03:30.607Z,7.44
2023-01-30T14:05:59.490Z,7.43
2023-01-30T14:08:51.188Z,7.44
2023-01-30T14:11:49.097Z,7.41
2023-01-30T14:14:20.099Z,7.37
2023-01-30T14:17:08.331Z,7.38
2023-01-30T14:19:39.948Z,7.45
2023-01-30T14:22:28.167Z,7.54
2023-01-30T14:25:22.887Z,7.51
2023-01-30T14:27:53.036Z,7.47
2023-01-30T14:30:38.228Z,7.44
2023-01-30T14:33:25.264Z,7.41
2023-01-30T14:36:01.188Z,7.34
2023-01-30T14:39:11.787Z,7.28
2023-01-30T14:41:38.760Z,7.24
2023-01-30T14:44:07.524Z,7.21
2023-01-30T14:46:54.540Z,7.20
2023-01-30T14:49:29.951Z,7.24
2023-01-30T14:51:57.788Z,7.25
2023-01-30T14:54:41.142Z,7.23
2023-01-30T14:57:23.610Z,7.20
2023-01-30T15:02:55.580Z,7.14
2023-01-30T15:05:27.866Z,7.07
2023-01-30T15:08:06.791Z,7.01
2023-01-30T15:11:01.805Z,6.97
2023-01-30T15:13:38.281Z,6.92
2023-01-30T15:16:28.736Z,6.87
2023-01-30T15:19:27.364Z,6.86
2023-01-30T15:22:00.486Z,6.88
2023-01-30T15:24:39.493Z,6.84
2023-01-30T15:27:31.747Z,6.76
2023-01-30T15:30:19.231Z,6.71
2023-01-30T15:32:47.115Z,6.60
2023-01-30T15:35:16.963Z,6.50
2023-01-30T15:37:49.024Z,6.44
2023-01-30T15:40:18.031Z,6.44
2023-01-30T15:42:48.048Z,6.48
2023-01-30T15:46:06.327Z,6.45
2023-01-30T15:48:57.827Z,6.40
2023-01-30T15:51:28.424Z,6.39
2023-01-30T15:53:57.504Z,6.35
2023-01-30T15:56:28.566Z,6.27
2023-01-30T15:58:58.728Z,6.23
2023-01-30T16:01:26.281Z,6.18
2023-01-30T16:03:53.817Z,6.13
2023-01-30T16:06:39.464Z,6.15
2023-01-30T16:09:20.894Z,6.15
2023-01-30T16:11:51.754Z,6.11
2023-01-30T16:14:21.826Z,6.14
2023-01-30T16:17:03.816Z,6.10
2023-01-30T16:19:38.242Z,6.12
2023-01-30T16:22:17.165Z,6.08
2023-01-30T16:24:48.185Z,6.01
2023-01-30T16:27:24.292Z,5.92
2023-01-30T16:29:55.896Z,5.92
2023-01-30T16:32:29.817Z,5.90
2023-01-30T16:35:27.228Z,5.89
2023-01-30T16:37:56.952Z,5.86
2023-01-30T16:40:26.876Z,5.78
2023-01-30T16:42:58.837Z,5.78
2023-01-30T16:45:34.938Z,5.77
2023-01-30T16:48:34.790Z,5.73
2023-01-30T16:51:02.044Z,5.73
2023-01-30T16:53:31.168Z,5.68
2023-01-30T16:56:11.121Z,5.64
2023-01-30T16:58:38.831Z,5.62
2023-01-30T17:01:08.753Z,5.69
2023-01-30T17:03:39.469Z,5.63
2023-01-30T17:06:20.039Z,5.63
2023-01-30T17:08:55.469Z,5.69
2023-01-30T17:14:30.937Z,5.98
2023-01-30T17:17:10.278Z,6.03
2023-01-30T17:19:38.421Z,6.04
2023-01-30T17:22:08.637Z,6.06
2023-01-30T17:24:36.169Z,6.09
2023-01-30T17:27:04.789Z,6.04
2023-01-30T17:29:48.861Z,6.03
2023-01-30T17:32:16.279Z,6.06
2023-01-30T17:34:43.244Z,6.06
2023-01-30T17:37:20.975Z,6.02
2023-01-30T17:39:48.670Z,5.94
2023-01-30T17:42:22.551Z,5.92
2023-01-30T17:44:50.050Z,5.93
2023-01-30T17:47:17.556Z,5.91
2023-01-30T17:49:45.213Z,5.93
2023-01-30T17:52:13.865Z,5.89
2023-01-30T17:54:40.770Z,5.75
2023-01-30T17:57:10.966Z,5.68
2023-01-30T17:59:38.213Z,5.56
2023-01-30T18:02:07.065Z,5.48
2023-01-30T18:04:34.446Z,5.42
2023-01-30T18:07:04.842Z,5.37
2023-01-30T18:09:32.120Z,5.32
2023-01-30T18:11:59.137Z,5.38
2023-01-30T18:14:26.050Z,5.41
2023-01-30T18:16:53.310Z,5.45
2023-01-30T18:19:24.354Z,5.46
2023-01-30T18:21:51.860Z,5.52
2023-01-30T18:24:19.531Z,5.61
2023-01-30T18:26:48.103Z,5.72
2023-01-30T18:29:15.787Z,5.77
2023-01-30T18:31:43.103Z,5.86
2023-01-30T18:34:11.533Z,5.88
2023-01-30T18:36:39.182Z,5.93
2023-01-30T18:39:06.454Z,5.93
2023-01-30T18:41:35.882Z,5.89
2023-01-30T18:44:07.754Z,5.87
2023-01-30T18:46:35.205Z,5.80
2023-01-30T18:49:02.848Z,5.74
2023-01-30T18:51:33.938Z,5.68
2023-01-30T18:54:02.326Z,5.51
2023-01-30T18:56:32.058Z,5.35
2023-01-30T18:59:02.919Z,5.21
2023-01-30T19:01:40.143Z,5.18
2023-01-30T19:04:09.472Z,5.11
2023-01-30T19:06:39.813Z,5.05
2023-01-30T19:09:07.809Z,4.99
2023-01-30T19:11:53.849Z,5.02
2023-01-30T19:14:21.674Z,5.10
2023-01-30T19:16:51.212Z,5.22
2023-01-30T19:19:18.525Z,5.31
2023-01-30T19:21:45.584Z,5.34
2023-01-30T19:24:15.483Z,5.38
2023-01-30T19:26:43.773Z,5.39
2023-01-30T19:29:12.481Z,5.41
2023-01-30T19:31:39.930Z,5.49
2023-01-30T19:34:07.159Z,5.53
2023-01-30T19:36:36.029Z,5.57
2023-01-30T19:39:05.883Z,5.59
2023-01-30T19:41:36.119Z,5.54
2023-01-30T19:44:05.533Z,5.50
2023-01-30T19:46:32.606Z,5.47
2023-01-30T19:48:59.933Z,5.50
2023-01-30T19:51:30.007Z,5.45
2023-01-30T19:53:59.723Z,5.41
2023-01-30T19:56:28.380Z,5.31
2023-01-30T19:58:58.477Z,5.18
2023-01-30T20:01:29.997Z,5.10
2023-01-30T20:03:58.956Z,5.09
2023-01-30T20:06:29.504Z,5.04
2023-01-30T20:09:02.601Z,4.98
2023-01-30T20:11:31.031Z,4.88
2023-01-30T20:13:59.089Z,4.86
2023-01-30T20:16:27.838Z,4.81
2023-01-30T20:19:00.478Z,4.76
2023-01-30T20:21:29.473Z,4.72
2023-01-30T20:23:56.902Z,4.71
2023-01-30T20:26:30.081Z,4.73
2023-01-30T20:28:57.914Z,4.72
2023-01-30T20:31:27.212Z,4.80
2023-01-30T20:33:56.919Z,4.89
2023-01-30T20:36:25.864Z,4.98
2023-01-30T20:38:54.012Z,5.05
2023-01-30T20:41:24.340Z,5.13
2023-01-30T20:43:54.325Z,5.04
2023-01-30T20:46:23.648Z,5.06
2023-01-30T20:48:54.547Z,4.99
2023-01-30T20:51:27.985Z,4.89
2023-01-30T20:53:58.303Z,4.85
2023-01-30T20:56:27.421Z,4.79
2023-01-30T20:58:54.487Z,4.75
2023-01-30T21:01:24.268Z,4.74
2023-01-30T21:03:53.361Z,4.76
2023-01-30T21:06:41.886Z,4.82
2023-01-30T21:09:21.496Z,4.80
2023-01-30T21:11:50.339Z,4.78
2023-01-30T21:14:17.849Z,4.78
2023-01-30T21:16:45.207Z,4.85
2023-01-30T21:19:16.366Z,4.86
2023-01-30T21:21:53.509Z,4.81
2023-01-30T21:24:28.866Z,4.77
2023-01-30T21:26:56.596Z,4.69
2023-01-30T21:29:25.564Z,4.64
2023-01-30T21:31:53.429Z,4.58
2023-01-30T21:34:21.236Z,4.57
2023-01-30T21:37:08.527Z,4.55
2023-01-30T21:39:53.948Z,4.52
2023-01-30T21:42:40.825Z,4.54
2023-01-30T21:45:08.597Z,4.49
2023-01-30T21:47:35.929Z,4.48
2023-01-30T21:50:03.307Z,4.42
2023-01-30T21:52:32.131Z,4.36
2023-01-30T21:54:59.181Z,4.48
2023-01-30T21:57:26.230Z,4.55
2023-01-30T21:59:53.222Z,4.54
2023-01-30T22:02:21.082Z,4.51
2023-01-30T22:04:48.272Z,4.50
2023-01-30T22:07:15.142Z,4.52
2023-01-30T22:09:42.364Z,4.50
2023-01-30T22:12:11.128Z,4.51
2023-01-30T22:14:38.641Z,4.51
2023-01-30T22:17:05.901Z,4.44
2023-01-30T22:19:35.733Z,4.40
2023-01-30T22:22:03.494Z,4.39
2023-01-30T22:24:30.720Z,4.33
2023-01-30T22:26:58.261Z,4.30
2023-01-30T22:29:25.182Z,4.31
2023-01-30T22:31:52.354Z,4.29
2023-01-30T22:34:20.082Z,4.27
2023-01-30T22:36:47.963Z,4.20
2023-01-30T22:39:15.640Z,4.15
2023-01-30T22:41:42.872Z,4.15
2023-01-30T22:44:10.767Z,4.09
2023-01-30T22:46:40.213Z,4.06
2023-01-30T22:49:08.886Z,4.02
2023-01-30T22:51:38.558Z,4.02
2023-01-30T22:54:10.151Z,3.99
2023-01-30T22:56:38.473Z,3.95
2023-01-30T22:59:06.383Z,3.88
2023-01-30T23:01:37.157Z,3.81
2023-01-30T23:04:16.126Z,3.74
2023-01-30T23:06:43.787Z,3.73
2023-01-30T23:09:14.288Z,3.71
2023-01-30T23:12:10.017Z,3.65
2023-01-30T23:14:37.987Z,3.61
2023-01-30T23:17:26.381Z,3.55
2023-01-30T23:19:54.554Z,3.48
2023-01-30T23:22:21.737Z,3.44
2023-01-30T23:24:49.987Z,3.46
2023-01-30T23:27:17.020Z,3.50
2023-01-30T23:29:44.312Z,3.48
2023-01-30T23:32:11.406Z,3.45
2023-01-30T23:34:38.495Z,3.41
2023-01-30T23:37:05.858Z,3.40
2023-01-30T23:39:32.838Z,3.36
2023-01-30T23:41:59.632Z,3.33
2023-01-30T23:44:26.649Z,3.30
2023-01-30T23:46:53.790Z,3.34
2023-01-30T23:49:21.522Z,3.34
2023-01-30T23:51:48.443Z,3.29
2023-01-30T23:54:16.261Z,3.28
2023-01-30T23:56:44.875Z,3.25
2023-01-30T23:59:12.732Z,3.25
